sensor_id;sensor_type;location;lat;lon;timestamp;P1;durP1;ratioP1;P2;durP2;ratioP2
11422;SDS011;5768;51.476;7.210;2023-03-14T00:03:18;4.55;;;1.88;;
11422;SDS011;5768;51.476;7.210;2023-03-14T00:08:20;4.72;;;1.63;;
11422;SDS011;5768;51.476;7.210;2023-03-14T00:13:23;2.13;;;1.07;;
11422;SDS011;5768;51.476;7.210;2023-03-14T00:18:29;2.83;;;1.42;;
11422;SDS011;5768;51.476;7.210;2023-03-14T00:23:31;4.40;;;1.77;;
11422;SDS011;5768;51.476;7.210;2023-03-14T00:28:35;2.63;;;1.45;;
11422;SDS011;5768;51.476;7.210;2023-03-14T00:33:40;6.70;;;1.70;;
11422;SDS011;5768;51.476;7.210;2023-03-14T00:38:43;3.43;;;1.50;;
11422;SDS011;5768;51.476;7.210;2023-03-14T00:43:47;5.50;;;1.37;;
11422;SDS011;5768;51.476;7.210;2023-03-14T00:48:51;4.07;;;1.67;;
11422;SDS011;5768;51.476;7.210;2023-03-14T00:53:53;1.77;;;0.97;;
11422;SDS011;5768;51.476;7.210;2023-03-14T00:58:57;6.60;;;2.28;;
11422;SDS011;5768;51.476;7.210;2023-03-14T01:04:02;2.25;;;1.33;;
11422;SDS011;5768;51.476;7.210;2023-03-14T01:09:04;3.40;;;1.20;;
11422;SDS011;5768;51.476;7.210;2023-03-14T01:14:07;1.23;;;0.90;;
11422;SDS011;5768;51.476;7.210;2023-03-14T01:19:10;2.27;;;1.03;;
11422;SDS011;5768;51.476;7.210;2023-03-14T01:24:13;2.03;;;1.10;;
11422;SDS011;5768;51.476;7.210;2023-03-14T01:29:16;1.80;;;0.77;;
11422;SDS011;5768;51.476;7.210;2023-03-14T01:34:19;1.67;;;0.87;;
11422;SDS011;5768;51.476;7.210;2023-03-14T01:39:22;1.20;;;0.70;;
11422;SDS011;5768;51.476;7.210;2023-03-14T01:44:24;2.57;;;1.07;;
11422;SDS011;5768;51.476;7.210;2023-03-14T01:49:27;5.93;;;1.43;;
11422;SDS011;5768;51.476;7.210;2023-03-14T01:54:35;4.83;;;1.10;;
11422;SDS011;5768;51.476;7.210;2023-03-14T01:59:45;4.60;;;1.37;;
11422;SDS011;5768;51.476;7.210;2023-03-14T02:04:57;4.30;;;1.40;;
11422;SDS011;5768;51.476;7.210;2023-03-14T02:10:00;2.17;;;0.87;;
11422;SDS011;5768;51.476;7.210;2023-03-14T02:15:04;3.00;;;1.40;;
11422;SDS011;5768;51.476;7.210;2023-03-14T02:20:13;4.50;;;1.17;;
11422;SDS011;5768;51.476;7.210;2023-03-14T02:25:34;4.73;;;1.40;;
11422;SDS011;5768;51.476;7.210;2023-03-14T02:30:46;2.20;;;1.10;;
11422;SDS011;5768;51.476;7.210;2023-03-14T02:35:51;2.10;;;1.20;;
11422;SDS011;5768;51.476;7.210;2023-03-14T02:40:57;3.17;;;1.50;;
11422;SDS011;5768;51.476;7.210;2023-03-14T02:46:01;5.00;;;1.63;;
11422;SDS011;5768;51.476;7.210;2023-03-14T02:51:06;6.20;;;1.47;;
11422;SDS011;5768;51.476;7.210;2023-03-14T02:56:09;4.80;;;1.70;;
11422;SDS011;5768;51.476;7.210;2023-03-14T03:01:13;7.63;;;1.30;;
11422;SDS011;5768;51.476;7.210;2023-03-14T03:06:15;4.33;;;1.40;;
11422;SDS011;5768;51.476;7.210;2023-03-14T03:11:18;3.63;;;1.53;;
11422;SDS011;5768;51.476;7.210;2023-03-14T03:16:21;4.03;;;1.53;;
11422;SDS011;5768;51.476;7.210;2023-03-14T03:21:23;6.70;;;1.87;;
11422;SDS011;5768;51.476;7.210;2023-03-14T03:26:25;4.70;;;1.57;;
11422;SDS011;5768;51.476;7.210;2023-03-14T03:31:29;5.57;;;1.57;;
11422;SDS011;5768;51.476;7.210;2023-03-14T03:36:31;2.80;;;1.20;;
11422;SDS011;5768;51.476;7.210;2023-03-14T03:41:34;4.73;;;1.50;;
11422;SDS011;5768;51.476;7.210;2023-03-14T03:46:37;4.70;;;1.30;;
11422;SDS011;5768;51.476;7.210;2023-03-14T03:51:40;4.17;;;1.77;;
11422;SDS011;5768;51.476;7.210;2023-03-14T03:56:42;5.40;;;1.50;;
11422;SDS011;5768;51.476;7.210;2023-03-14T04:01:45;5.90;;;1.63;;
11422;SDS011;5768;51.476;7.210;2023-03-14T04:06:47;7.37;;;1.50;;
11422;SDS011;5768;51.476;7.210;2023-03-14T04:11:50;4.10;;;1.27;;
11422;SDS011;5768;51.476;7.210;2023-03-14T04:16:53;3.67;;;1.10;;
11422;SDS011;5768;51.476;7.210;2023-03-14T04:21:56;5.83;;;1.43;;
11422;SDS011;5768;51.476;7.210;2023-03-14T04:26:58;4.23;;;1.20;;
11422;SDS011;5768;51.476;7.210;2023-03-14T04:32:02;1.57;;;0.77;;
11422;SDS011;5768;51.476;7.210;2023-03-14T04:37:04;3.83;;;1.27;;
11422;SDS011;5768;51.476;7.210;2023-03-14T04:42:08;3.33;;;1.10;;
11422;SDS011;5768;51.476;7.210;2023-03-14T04:47:12;1.73;;;0.83;;
11422;SDS011;5768;51.476;7.210;2023-03-14T04:52:14;3.83;;;1.10;;
11422;SDS011;5768;51.476;7.210;2023-03-14T04:57:16;1.47;;;0.70;;
11422;SDS011;5768;51.476;7.210;2023-03-14T05:02:20;2.20;;;0.90;;
11422;SDS011;5768;51.476;7.210;2023-03-14T05:07:22;1.43;;;0.70;;
11422;SDS011;5768;51.476;7.210;2023-03-14T05:12:24;1.73;;;0.53;;
11422;SDS011;5768;51.476;7.210;2023-03-14T05:17:28;0.40;;;0.40;;
11422;SDS011;5768;51.476;7.210;2023-03-14T05:22:30;1.30;;;0.40;;
11422;SDS011;5768;51.476;7.210;2023-03-14T05:27:32;1.50;;;0.87;;
11422;SDS011;5768;51.476;7.210;2023-03-14T05:32:36;1.53;;;1.00;;
11422;SDS011;5768;51.476;7.210;2023-03-14T05:37:38;1.23;;;0.60;;
11422;SDS011;5768;51.476;7.210;2023-03-14T05:42:40;1.83;;;1.00;;
11422;SDS011;5768;51.476;7.210;2023-03-14T05:47:43;2.60;;;1.23;;
11422;SDS011;5768;51.476;7.210;2023-03-14T05:52:45;2.63;;;1.20;;
11422;SDS011;5768;51.476;7.210;2023-03-14T05:57:47;2.57;;;1.30;;
11422;SDS011;5768;51.476;7.210;2023-03-14T06:02:51;3.50;;;1.70;;
11422;SDS011;5768;51.476;7.210;2023-03-14T06:07:54;2.40;;;1.50;;
11422;SDS011;5768;51.476;7.210;2023-03-14T06:12:56;4.27;;;2.00;;
11422;SDS011;5768;51.476;7.210;2023-03-14T06:18:00;5.07;;;2.33;;
11422;SDS011;5768;51.476;7.210;2023-03-14T06:23:02;6.30;;;1.70;;
11422;SDS011;5768;51.476;7.210;2023-03-14T06:28:04;6.10;;;1.70;;
11422;SDS011;5768;51.476;7.210;2023-03-14T06:33:16;3.03;;;1.60;;
11422;SDS011;5768;51.476;7.210;2023-03-14T06:38:18;3.77;;;1.40;;
11422;SDS011;5768;51.476;7.210;2023-03-14T06:43:20;3.33;;;1.60;;
11422;SDS011;5768;51.476;7.210;2023-03-14T06:48:26;2.57;;;1.70;;
11422;SDS011;5768;51.476;7.210;2023-03-14T06:53:28;2.33;;;1.30;;
11422;SDS011;5768;51.476;7.210;2023-03-14T06:58:33;3.10;;;1.77;;
11422;SDS011;5768;51.476;7.210;2023-03-14T07:03:37;2.30;;;1.50;;
11422;SDS011;5768;51.476;7.210;2023-03-14T07:08:39;2.63;;;1.60;;
11422;SDS011;5768;51.476;7.210;2023-03-14T07:13:42;3.17;;;1.40;;
11422;SDS011;5768;51.476;7.210;2023-03-14T07:18:45;1.97;;;1.30;;
11422;SDS011;5768;51.476;7.210;2023-03-14T07:23:49;2.13;;;1.30;;
11422;SDS011;5768;51.476;7.210;2023-03-14T07:28:51;1.33;;;1.23;;
11422;SDS011;5768;51.476;7.210;2023-03-14T07:33:54;2.13;;;1.40;;
11422;SDS011;5768;51.476;7.210;2023-03-14T07:38:57;2.80;;;1.10;;
11422;SDS011;5768;51.476;7.210;2023-03-14T07:43:59;1.70;;;1.17;;
11422;SDS011;5768;51.476;7.210;2023-03-14T07:49:03;2.27;;;1.20;;
11422;SDS011;5768;51.476;7.210;2023-03-14T07:54:05;1.10;;;0.97;;
11422;SDS011;5768;51.476;7.210;2023-03-14T07:59:08;1.03;;;1.00;;
11422;SDS011;5768;51.476;7.210;2023-03-14T08:04:12;2.50;;;1.20;;
11422;SDS011;5768;51.476;7.210;2023-03-14T08:09:14;0.80;;;0.80;;
11422;SDS011;5768;51.476;7.210;2023-03-14T08:14:16;1.93;;;1.10;;
11422;SDS011;5768;51.476;7.210;2023-03-14T08:19:20;1.60;;;1.20;;
11422;SDS011;5768;51.476;7.210;2023-03-14T08:24:22;1.30;;;1.20;;
11422;SDS011;5768;51.476;7.210;2023-03-14T08:29:24;0.90;;;0.90;;
11422;SDS011;5768;51.476;7.210;2023-03-14T08:34:27;0.80;;;0.80;;
11422;SDS011;5768;51.476;7.210;2023-03-14T08:39:29;1.50;;;1.23;;
11422;SDS011;5768;51.476;7.210;2023-03-14T08:44:32;1.10;;;1.10;;
11422;SDS011;5768;51.476;7.210;2023-03-14T08:49:39;1.87;;;1.30;;
11422;SDS011;5768;51.476;7.210;2023-03-14T08:54:41;3.30;;;1.27;;
11422;SDS011;5768;51.476;7.210;2023-03-14T08:59:49;1.13;;;1.13;;
11422;SDS011;5768;51.476;7.210;2023-03-14T09:04:53;2.60;;;1.13;;
11422;SDS011;5768;51.476;7.210;2023-03-14T09:09:55;2.53;;;1.30;;
11422;SDS011;5768;51.476;7.210;2023-03-14T09:14:57;1.13;;;1.10;;
11422;SDS011;5768;51.476;7.210;2023-03-14T09:20:01;1.13;;;1.00;;
11422;SDS011;5768;51.476;7.210;2023-03-14T09:25:09;2.10;;;1.90;;
11422;SDS011;5768;51.476;7.210;2023-03-14T09:30:12;2.60;;;1.20;;
11422;SDS011;5768;51.476;7.210;2023-03-14T09:35:16;1.33;;;1.23;;
11422;SDS011;5768;51.476;7.210;2023-03-14T09:40:19;1.73;;;0.70;;
11422;SDS011;5768;51.476;7.210;2023-03-14T09:45:25;0.70;;;0.70;;
11422;SDS011;5768;51.476;7.210;2023-03-14T09:50:33;0.40;;;0.40;;
11422;SDS011;5768;51.476;7.210;2023-03-14T09:55:41;0.50;;;0.50;;
11422;SDS011;5768;51.476;7.210;2023-03-14T10:00:46;0.77;;;0.53;;
11422;SDS011;5768;51.476;7.210;2023-03-14T10:05:51;3.37;;;0.70;;
11422;SDS011;5768;51.476;7.210;2023-03-14T10:10:55;1.00;;;0.77;;
11422;SDS011;5768;51.476;7.210;2023-03-14T10:16:00;1.67;;;0.50;;
11422;SDS011;5768;51.476;7.210;2023-03-14T10:21:17;0.97;;;0.73;;
11422;SDS011;5768;51.476;7.210;2023-03-14T10:26:27;0.70;;;0.50;;
11422;SDS011;5768;51.476;7.210;2023-03-14T10:31:45;0.83;;;0.83;;
11422;SDS011;5768;51.476;7.210;2023-03-14T10:36:53;0.73;;;0.73;;
11422;SDS011;5768;51.476;7.210;2023-03-14T10:42:03;1.13;;;0.73;;
11422;SDS011;5768;51.476;7.210;2023-03-14T10:47:15;0.63;;;0.50;;
11422;SDS011;5768;51.476;7.210;2023-03-14T10:52:24;2.80;;;1.00;;
11422;SDS011;5768;51.476;7.210;2023-03-14T10:57:29;1.27;;;0.63;;
11422;SDS011;5768;51.476;7.210;2023-03-14T11:02:34;1.97;;;1.10;;
11422;SDS011;5768;51.476;7.210;2023-03-14T11:07:52;1.00;;;1.00;;
11422;SDS011;5768;51.476;7.210;2023-03-14T11:13:11;1.50;;;0.70;;
11422;SDS011;5768;51.476;7.210;2023-03-14T11:18:33;1.83;;;0.83;;
11422;SDS011;5768;51.476;7.210;2023-03-14T11:24:05;1.43;;;0.67;;
11422;SDS011;5768;51.476;7.210;2023-03-14T11:29:28;0.90;;;0.60;;
11422;SDS011;5768;51.476;7.210;2023-03-14T11:34:41;0.47;;;0.47;;
11422;SDS011;5768;51.476;7.210;2023-03-14T11:39:55;0.47;;;0.47;;
11422;SDS011;5768;51.476;7.210;2023-03-14T11:45:12;1.73;;;0.70;;
11422;SDS011;5768;51.476;7.210;2023-03-14T11:50:22;0.67;;;0.67;;
11422;SDS011;5768;51.476;7.210;2023-03-14T11:55:31;2.57;;;2.00;;
11422;SDS011;5768;51.476;7.210;2023-03-14T12:00:36;0.87;;;0.60;;
11422;SDS011;5768;51.476;7.210;2023-03-14T12:05:51;1.80;;;0.63;;
11422;SDS011;5768;51.476;7.210;2023-03-14T12:11:06;1.00;;;0.90;;
11422;SDS011;5768;51.476;7.210;2023-03-14T12:16:25;1.60;;;1.20;;
11422;SDS011;5768;51.476;7.210;2023-03-14T12:21:49;2.83;;;1.20;;
11422;SDS011;5768;51.476;7.210;2023-03-14T12:27:01;2.13;;;1.00;;
11422;SDS011;5768;51.476;7.210;2023-03-14T12:32:20;2.77;;;1.17;;
11422;SDS011;5768;51.476;7.210;2023-03-14T12:37:30;1.80;;;0.97;;
11422;SDS011;5768;51.476;7.210;2023-03-14T12:42:45;2.77;;;1.23;;
11422;SDS011;5768;51.476;7.210;2023-03-14T12:48:08;3.13;;;1.37;;
11422;SDS011;5768;51.476;7.210;2023-03-14T12:59:30;1.33;;;1.07;;
11422;SDS011;5768;51.476;7.210;2023-03-14T13:04:43;6.23;;;1.43;;
11422;SDS011;5768;51.476;7.210;2023-03-14T13:09:53;4.37;;;1.27;;
11422;SDS011;5768;51.476;7.210;2023-03-14T13:15:02;4.57;;;1.43;;
11422;SDS011;5768;51.476;7.210;2023-03-14T13:20:22;2.77;;;1.27;;
11422;SDS011;5768;51.476;7.210;2023-03-14T13:25:31;6.23;;;1.37;;
11422;SDS011;5768;51.476;7.210;2023-03-14T13:30:39;5.27;;;1.73;;
11422;SDS011;5768;51.476;7.210;2023-03-14T13:35:43;5.03;;;1.80;;
11422;SDS011;5768;51.476;7.210;2023-03-14T13:40:48;4.33;;;1.37;;
11422;SDS011;5768;51.476;7.210;2023-03-14T13:45:54;5.63;;;2.30;;
11422;SDS011;5768;51.476;7.210;2023-03-14T13:51:05;6.47;;;1.83;;
11422;SDS011;5768;51.476;7.210;2023-03-14T13:56:11;5.00;;;2.00;;
11422;SDS011;5768;51.476;7.210;2023-03-14T14:01:16;6.67;;;2.63;;
11422;SDS011;5768;51.476;7.210;2023-03-14T14:06:25;6.67;;;2.00;;
11422;SDS011;5768;51.476;7.210;2023-03-14T14:11:35;7.97;;;2.30;;
11422;SDS011;5768;51.476;7.210;2023-03-14T14:16:56;9.20;;;2.33;;
11422;SDS011;5768;51.476;7.210;2023-03-14T14:22:01;10.63;;;2.93;;
11422;SDS011;5768;51.476;7.210;2023-03-14T14:27:08;7.30;;;2.20;;
11422;SDS011;5768;51.476;7.210;2023-03-14T14:32:19;9.97;;;2.60;;
11422;SDS011;5768;51.476;7.210;2023-03-14T14:37:22;3.87;;;1.90;;
11422;SDS011;5768;51.476;7.210;2023-03-14T14:42:29;7.83;;;2.40;;
11422;SDS011;5768;51.476;7.210;2023-03-14T14:47:47;7.27;;;1.90;;
11422;SDS011;5768;51.476;7.210;2023-03-14T14:52:55;5.93;;;1.90;;
11422;SDS011;5768;51.476;7.210;2023-03-14T14:58:11;5.85;;;2.03;;
11422;SDS011;5768;51.476;7.210;2023-03-14T15:03:22;6.00;;;1.98;;
11422;SDS011;5768;51.476;7.210;2023-03-14T15:08:30;4.93;;;1.90;;
11422;SDS011;5768;51.476;7.210;2023-03-14T15:13:32;5.03;;;2.00;;
11422;SDS011;5768;51.476;7.210;2023-03-14T15:18:36;4.05;;;1.48;;
11422;SDS011;5768;51.476;7.210;2023-03-14T15:23:41;6.05;;;2.05;;
11422;SDS011;5768;51.476;7.210;2023-03-14T15:28:44;4.50;;;1.98;;
11422;SDS011;5768;51.476;7.210;2023-03-14T15:33:48;6.07;;;2.08;;
11422;SDS011;5768;51.476;7.210;2023-03-14T15:38:51;3.95;;;1.20;;
11422;SDS011;5768;51.476;7.210;2023-03-14T15:44:03;5.85;;;1.60;;
11422;SDS011;5768;51.476;7.210;2023-03-14T15:49:07;4.00;;;1.52;;
11422;SDS011;5768;51.476;7.210;2023-03-14T15:54:10;2.00;;;0.80;;
11422;SDS011;5768;51.476;7.210;2023-03-14T15:59:12;3.03;;;1.13;;
11422;SDS011;5768;51.476;7.210;2023-03-14T16:04:16;2.83;;;1.03;;
11422;SDS011;5768;51.476;7.210;2023-03-14T16:09:19;5.23;;;1.27;;
11422;SDS011;5768;51.476;7.210;2023-03-14T16:14:26;3.10;;;1.17;;
11422;SDS011;5768;51.476;7.210;2023-03-14T16:19:33;3.63;;;1.30;;
11422;SDS011;5768;51.476;7.210;2023-03-14T16:24:36;4.50;;;1.43;;
11422;SDS011;5768;51.476;7.210;2023-03-14T16:29:42;4.13;;;1.27;;
11422;SDS011;5768;51.476;7.210;2023-03-14T16:34:48;4.40;;;1.20;;
11422;SDS011;5768;51.476;7.210;2023-03-14T16:39:51;2.13;;;1.10;;
11422;SDS011;5768;51.476;7.210;2023-03-14T16:44:54;4.00;;;1.40;;
11422;SDS011;5768;51.476;7.210;2023-03-14T16:49:57;3.63;;;1.40;;
11422;SDS011;5768;51.476;7.210;2023-03-14T16:55:02;4.10;;;1.30;;
11422;SDS011;5768;51.476;7.210;2023-03-14T17:00:07;0.60;;;0.60;;
11422;SDS011;5768;51.476;7.210;2023-03-14T17:05:12;3.23;;;0.77;;
11422;SDS011;5768;51.476;7.210;2023-03-14T17:10:15;2.13;;;1.20;;
11422;SDS011;5768;51.476;7.210;2023-03-14T17:15:17;2.00;;;0.90;;
11422;SDS011;5768;51.476;7.210;2023-03-14T17:20:21;3.23;;;1.50;;
11422;SDS011;5768;51.476;7.210;2023-03-14T17:25:23;2.73;;;0.90;;
11422;SDS011;5768;51.476;7.210;2023-03-14T17:30:28;3.27;;;1.40;;
11422;SDS011;5768;51.476;7.210;2023-03-14T17:35:32;4.23;;;1.80;;
11422;SDS011;5768;51.476;7.210;2023-03-14T17:40:34;3.73;;;1.50;;
11422;SDS011;5768;51.476;7.210;2023-03-14T17:45:36;4.83;;;1.40;;
11422;SDS011;5768;51.476;7.210;2023-03-14T17:50:40;3.87;;;1.60;;
11422;SDS011;5768;51.476;7.210;2023-03-14T17:55:42;8.60;;;2.00;;
11422;SDS011;5768;51.476;7.210;2023-03-14T18:00:48;2.83;;;1.57;;
11422;SDS011;5768;51.476;7.210;2023-03-14T18:05:54;4.10;;;1.80;;
11422;SDS011;5768;51.476;7.210;2023-03-14T18:10:57;3.63;;;1.30;;
11422;SDS011;5768;51.476;7.210;2023-03-14T18:15:59;4.57;;;1.30;;
11422;SDS011;5768;51.476;7.210;2023-03-14T18:21:09;7.17;;;1.80;;
11422;SDS011;5768;51.476;7.210;2023-03-14T18:26:30;4.97;;;1.70;;
11422;SDS011;5768;51.476;7.210;2023-03-14T18:31:33;5.33;;;2.10;;
11422;SDS011;5768;51.476;7.210;2023-03-14T18:36:37;6.80;;;2.10;;
11422;SDS011;5768;51.476;7.210;2023-03-14T18:41:39;3.23;;;1.57;;
11422;SDS011;5768;51.476;7.210;2023-03-14T18:46:42;4.33;;;2.00;;
11422;SDS011;5768;51.476;7.210;2023-03-14T18:51:46;5.23;;;3.07;;
11422;SDS011;5768;51.476;7.210;2023-03-14T18:56:48;8.27;;;2.57;;
11422;SDS011;5768;51.476;7.210;2023-03-14T19:01:50;2.93;;;1.63;;
11422;SDS011;5768;51.476;7.210;2023-03-14T19:06:56;5.60;;;2.23;;
11422;SDS011;5768;51.476;7.210;2023-03-14T19:11:58;3.67;;;1.67;;
11422;SDS011;5768;51.476;7.210;2023-03-14T19:17:01;4.37;;;2.00;;
11422;SDS011;5768;51.476;7.210;2023-03-14T19:22:05;5.87;;;1.60;;
11422;SDS011;5768;51.476;7.210;2023-03-14T19:27:07;7.67;;;2.33;;
11422;SDS011;5768;51.476;7.210;2023-03-14T19:32:10;6.63;;;1.97;;
11422;SDS011;5768;51.476;7.210;2023-03-14T19:37:15;7.80;;;2.07;;
11422;SDS011;5768;51.476;7.210;2023-03-14T19:42:17;5.70;;;2.00;;
11422;SDS011;5768;51.476;7.210;2023-03-14T19:47:20;5.13;;;1.43;;
11422;SDS011;5768;51.476;7.210;2023-03-14T19:52:23;4.43;;;1.80;;
11422;SDS011;5768;51.476;7.210;2023-03-14T19:57:25;3.57;;;1.20;;
11422;SDS011;5768;51.476;7.210;2023-03-14T20:02:27;5.70;;;1.60;;
11422;SDS011;5768;51.476;7.210;2023-03-14T20:07:31;5.17;;;1.73;;
11422;SDS011;5768;51.476;7.210;2023-03-14T20:12:34;5.17;;;2.17;;
11422;SDS011;5768;51.476;7.210;2023-03-14T20:17:36;5.50;;;1.77;;
11422;SDS011;5768;51.476;7.210;2023-03-14T20:22:39;3.80;;;1.67;;
11422;SDS011;5768;51.476;7.210;2023-03-14T20:27:42;7.40;;;2.20;;
11422;SDS011;5768;51.476;7.210;2023-03-14T20:32:46;5.20;;;1.83;;
11422;SDS011;5768;51.476;7.210;2023-03-14T20:37:51;7.33;;;1.97;;
11422;SDS011;5768;51.476;7.210;2023-03-14T20:42:55;4.63;;;1.60;;
11422;SDS011;5768;51.476;7.210;2023-03-14T20:47:57;6.00;;;1.87;;
11422;SDS011;5768;51.476;7.210;2023-03-14T20:53:00;6.07;;;1.80;;
11422;SDS011;5768;51.476;7.210;2023-03-14T20:58:03;3.93;;;1.67;;
11422;SDS011;5768;51.476;7.210;2023-03-14T21:03:05;3.30;;;1.37;;
11422;SDS011;5768;51.476;7.210;2023-03-14T21:08:11;6.77;;;1.90;;
11422;SDS011;5768;51.476;7.210;2023-03-14T21:13:13;2.97;;;1.50;;
11422;SDS011;5768;51.476;7.210;2023-03-14T21:18:15;9.37;;;2.00;;
11422;SDS011;5768;51.476;7.210;2023-03-14T21:23:21;6.40;;;1.93;;
11422;SDS011;5768;51.476;7.210;2023-03-14T21:28:25;7.03;;;2.57;;
11422;SDS011;5768;51.476;7.210;2023-03-14T21:33:28;8.77;;;2.00;;
11422;SDS011;5768;51.476;7.210;2023-03-14T21:38:32;7.67;;;1.77;;
11422;SDS011;5768;51.476;7.210;2023-03-14T21:43:34;8.63;;;2.00;;
11422;SDS011;5768;51.476;7.210;2023-03-14T21:48:37;5.60;;;2.03;;
11422;SDS011;5768;51.476;7.210;2023-03-14T21:53:40;4.70;;;2.00;;
11422;SDS011;5768;51.476;7.210;2023-03-14T21:58:44;6.83;;;2.70;;
11422;SDS011;5768;51.476;7.210;2023-03-14T22:03:51;10.30;;;3.07;;
11422;SDS011;5768;51.476;7.210;2023-03-14T22:08:55;7.03;;;2.40;;
11422;SDS011;5768;51.476;7.210;2023-03-14T22:13:57;7.17;;;2.60;;
11422;SDS011;5768;51.476;7.210;2023-03-14T22:19:00;7.20;;;2.10;;
11422;SDS011;5768;51.476;7.210;2023-03-14T22:24:06;6.33;;;2.80;;
11422;SDS011;5768;51.476;7.210;2023-03-14T22:29:08;5.70;;;1.97;;
11422;SDS011;5768;51.476;7.210;2023-03-14T22:34:11;4.87;;;2.07;;
11422;SDS011;5768;51.476;7.210;2023-03-14T22:39:16;6.57;;;2.60;;
11422;SDS011;5768;51.476;7.210;2023-03-14T22:44:21;7.17;;;2.60;;
11422;SDS011;5768;51.476;7.210;2023-03-14T22:49:24;6.60;;;2.53;;
11422;SDS011;5768;51.476;7.210;2023-03-14T22:54:28;5.10;;;2.10;;
11422;SDS011;5768;51.476;7.210;2023-03-14T22:59:33;7.00;;;2.47;;
11422;SDS011;5768;51.476;7.210;2023-03-14T23:04:36;7.23;;;2.40;;
11422;SDS011;5768;51.476;7.210;2023-03-14T23:09:49;6.30;;;2.37;;
11422;SDS011;5768;51.476;7.210;2023-03-14T23:15:03;6.00;;;1.93;;
11422;SDS011;5768;51.476;7.210;2023-03-14T23:20:08;3.90;;;1.77;;
11422;SDS011;5768;51.476;7.210;2023-03-14T23:25:14;6.30;;;2.40;;
11422;SDS011;5768;51.476;7.210;2023-03-14T23:30:19;7.60;;;2.40;;
11422;SDS011;5768;51.476;7.210;2023-03-14T23:35:22;5.20;;;1.70;;
11422;SDS011;5768;51.476;7.210;2023-03-14T23:40:26;6.27;;;2.07;;
11422;SDS011;5768;51.476;7.210;2023-03-14T23:45:28;7.77;;;2.37;;
11422;SDS011;5768;51.476;7.210;2023-03-14T23:50:33;6.17;;;1.97;;
11422;SDS011;5768;51.476;7.210;2023-03-14T23:55:37;7.23;;;1.97;;
